createdAt,value
2018-12-18T00:00:47.774Z,60.40
2018-12-18T00:03:15.993Z,57.80
2018-12-18T00:05:44.231Z,62.77
2018-12-18T00:08:12.402Z,59.57
2018-12-18T00:10:45.969Z,59.43
2018-12-18T00:13:14.146Z,56.43
2018-12-18T00:15:42.315Z,54.53
2018-12-18T00:18:10.487Z,59.17
2018-12-18T00:20:38.664Z,57.53
2018-12-18T00:23:06.836Z,55.73
2018-12-18T00:25:34.990Z,59.93
2018-12-18T00:28:04.701Z,59.03
2018-12-18T00:30:32.855Z,56.40
2018-12-18T00:33:01.000Z,64.77
2018-12-18T00:35:31.936Z,55.23
2018-12-18T00:38:00.110Z,59.40
2018-12-18T00:40:28.265Z,54.87
2018-12-18T00:42:56.429Z,58.87
2018-12-18T00:45:24.582Z,59.17
2018-12-18T00:47:52.810Z,58.83
2018-12-18T00:50:21.830Z,58.10
2018-12-18T00:52:50.010Z,57.50
2018-12-18T00:55:18.221Z,56.73
2018-12-18T00:57:46.401Z,59.13
2018-12-18T01:00:14.559Z,60.17
2018-12-18T01:02:42.764Z,56.33
2018-12-18T01:05:11.050Z,59.27
2018-12-18T01:07:39.326Z,60.57
2018-12-18T01:10:08.042Z,56.20
2018-12-18T01:12:36.245Z,57.97
2018-12-18T01:15:06.567Z,57.13
2018-12-18T01:17:35.433Z,59.40
2018-12-18T01:20:04.067Z,57.50
2018-12-18T01:22:32.230Z,56.17
2018-12-18T01:25:00.450Z,61.07
2018-12-18T01:27:28.621Z,59.97
2018-12-18T01:29:56.799Z,55.43
2018-12-18T01:32:24.992Z,57.67
2018-12-18T01:34:53.148Z,56.73
2018-12-18T01:37:21.417Z,56.53
2018-12-18T01:39:49.618Z,57.83
2018-12-18T01:42:17.787Z,55.87
2018-12-18T01:44:45.953Z,61.40
2018-12-18T01:47:14.191Z,55.90
2018-12-18T01:49:42.358Z,57.50
2018-12-18T01:52:10.499Z,58.90
2018-12-18T01:54:38.669Z,53.73
2018-12-18T01:57:06.831Z,53.10
2018-12-18T01:59:35.023Z,56.63
2018-12-18T02:02:03.193Z,60.67
2018-12-18T02:04:31.343Z,59.63
2018-12-18T02:06:59.485Z,58.67
2018-12-18T02:09:27.650Z,53.60
2018-12-18T02:11:55.835Z,58.30
2018-12-18T02:14:24.101Z,64.30
2018-12-18T02:16:52.342Z,54.90
2018-12-18T02:19:20.531Z,59.77
2018-12-18T02:21:48.705Z,57.10
2018-12-18T02:24:16.880Z,61.73
2018-12-18T02:26:45.033Z,58.33
2018-12-18T02:29:13.203Z,54.33
2018-12-18T02:31:41.407Z,56.03
2018-12-18T02:34:13.815Z,56.00
2018-12-18T02:36:39.859Z,59.40
2018-12-18T02:39:08.028Z,56.07
2018-12-18T02:41:36.198Z,57.73
2018-12-18T02:44:04.482Z,53.17
2018-12-18T02:46:33.380Z,56.50
2018-12-18T02:49:01.541Z,53.27
2018-12-18T02:51:29.709Z,53.67
2018-12-18T02:53:57.995Z,56.60
2018-12-18T02:56:26.162Z,61.03
2018-12-18T02:58:54.329Z,57.97
2018-12-18T03:01:22.520Z,62.23
2018-12-18T03:03:50.666Z,58.20
2018-12-18T03:06:18.823Z,54.43
2018-12-18T03:08:47.039Z,55.13
2018-12-18T03:11:17.206Z,54.77
2018-12-18T03:13:45.373Z,56.80
2018-12-18T03:16:13.555Z,63.10
2018-12-18T03:18:41.886Z,60.80
2018-12-18T03:21:10.055Z,57.87
2018-12-18T03:23:38.308Z,56.17
2018-12-18T03:26:06.465Z,56.10
2018-12-18T03:28:34.633Z,52.70
2018-12-18T03:31:02.855Z,60.30
2018-12-18T03:33:31.139Z,59.77
2018-12-18T03:35:59.313Z,55.83
2018-12-18T03:38:27.500Z,55.53
2018-12-18T03:40:55.659Z,56.30
2018-12-18T03:43:23.819Z,53.37
2018-12-18T03:45:53.088Z,59.07
2018-12-18T03:48:21.719Z,55.27
2018-12-18T03:50:49.867Z,55.87
2018-12-18T03:53:18.062Z,59.43
2018-12-18T03:55:46.219Z,54.97
2018-12-18T03:58:14.388Z,58.23
2018-12-18T04:00:42.897Z,54.23
2018-12-18T04:03:11.970Z,56.83
2018-12-18T04:05:40.272Z,53.63
2018-12-18T04:08:08.456Z,58.23
2018-12-18T04:10:36.719Z,55.40
2018-12-18T04:13:04.894Z,56.40
2018-12-18T04:15:33.085Z,61.20
2018-12-18T04:18:01.369Z,58.47
2018-12-18T04:20:29.523Z,56.23
2018-12-18T04:22:57.705Z,53.03
2018-12-18T04:25:25.868Z,60.70
2018-12-18T04:27:54.089Z,58.43
2018-12-18T04:30:22.361Z,54.67
2018-12-18T04:32:50.522Z,60.03
2018-12-18T04:35:18.669Z,57.80
2018-12-18T04:37:46.870Z,53.40
2018-12-18T04:40:15.039Z,55.80
2018-12-18T04:42:43.196Z,57.83
2018-12-18T04:45:11.365Z,55.03
2018-12-18T04:47:39.528Z,60.10
2018-12-18T04:50:07.702Z,54.53
2018-12-18T04:52:35.918Z,57.23
2018-12-18T04:55:05.598Z,54.43
2018-12-18T04:57:33.742Z,54.73
2018-12-18T05:00:01.930Z,51.90
2018-12-18T05:02:30.100Z,55.73
2018-12-18T05:04:58.248Z,56.67
2018-12-18T05:07:26.421Z,53.13
2018-12-18T05:09:54.602Z,58.33
2018-12-18T05:12:22.753Z,60.93
2018-12-18T05:14:51.195Z,60.60
2018-12-18T05:17:19.391Z,59.20
2018-12-18T05:19:47.557Z,53.87
2018-12-18T05:22:15.731Z,54.03
2018-12-18T05:24:43.883Z,68.17
2018-12-18T05:27:12.068Z,52.73
2018-12-18T05:29:40.560Z,50.40
2018-12-18T05:32:08.934Z,55.73
2018-12-18T05:34:37.747Z,53.23
2018-12-18T05:37:05.947Z,55.70
2018-12-18T05:39:35.025Z,55.83
2018-12-18T05:42:03.301Z,56.17
2018-12-18T05:44:31.471Z,58.30
2018-12-18T05:46:59.659Z,56.93
2018-12-18T05:49:27.847Z,56.30
2018-12-18T05:51:56.013Z,57.37
2018-12-18T05:54:25.076Z,60.30
2018-12-18T05:56:54.458Z,54.77
2018-12-18T05:59:22.747Z,52.97
2018-12-18T06:01:50.897Z,55.73
2018-12-18T06:04:19.057Z,55.37
2018-12-18T06:06:47.951Z,55.37
2018-12-18T06:09:16.094Z,57.97
2018-12-18T06:11:44.281Z,59.07
2018-12-18T06:14:12.448Z,58.30
2018-12-18T06:16:40.785Z,54.03
2018-12-18T06:19:08.959Z,59.90
2018-12-18T06:21:37.132Z,58.13
2018-12-18T06:24:05.304Z,59.50
2018-12-18T06:26:33.488Z,58.00
2018-12-18T06:29:01.969Z,56.13
2018-12-18T06:31:30.138Z,52.33
2018-12-18T06:33:58.302Z,59.63
2018-12-18T06:36:26.457Z,56.73
2018-12-18T06:38:54.715Z,57.27
2018-12-18T06:41:22.861Z,56.40
2018-12-18T06:43:51.031Z,54.43
2018-12-18T06:46:19.199Z,56.63
2018-12-18T06:48:47.348Z,55.13
2018-12-18T06:51:15.507Z,55.67
2018-12-18T06:53:43.689Z,55.90
2018-12-18T06:56:11.855Z,56.50
2018-12-18T06:58:40.013Z,55.73
2018-12-18T07:01:08.236Z,56.60
2018-12-18T07:03:37.168Z,57.90
2018-12-18T07:06:05.381Z,57.77
2018-12-18T07:08:33.571Z,53.00
2018-12-18T07:11:01.712Z,55.00
2018-12-18T07:13:29.869Z,56.87
2018-12-18T07:15:58.054Z,55.57
2018-12-18T07:18:26.211Z,58.00
2018-12-18T07:20:54.368Z,53.17
2018-12-18T07:23:22.584Z,56.60
2018-12-18T07:25:51.581Z,56.53
2018-12-18T07:28:19.748Z,57.50
2018-12-18T07:30:47.954Z,55.27
2018-12-18T07:33:17.050Z,52.93
2018-12-18T07:35:45.196Z,59.13
2018-12-18T07:38:13.376Z,55.43
2018-12-18T07:40:41.528Z,55.93
2018-12-18T07:43:09.687Z,56.23
2018-12-18T07:45:37.874Z,56.97
2018-12-18T07:48:06.039Z,55.13
2018-12-18T07:50:34.206Z,54.17
2018-12-18T07:53:02.394Z,55.37
2018-12-18T07:55:30.570Z,57.30
2018-12-18T07:57:58.737Z,57.30
2018-12-18T08:00:26.907Z,54.10
2018-12-18T08:02:55.529Z,54.87
2018-12-18T08:05:29.907Z,55.77
2018-12-18T08:07:54.747Z,55.63
2018-12-18T08:10:22.919Z,56.80
2018-12-18T08:12:51.071Z,58.57
2018-12-18T08:15:19.241Z,54.97
2018-12-18T08:17:47.402Z,55.37
2018-12-18T08:20:15.592Z,56.97
2018-12-18T08:22:43.765Z,56.43
2018-12-18T08:25:11.921Z,55.23
2018-12-18T08:27:40.065Z,56.03
2018-12-18T08:30:08.966Z,56.93
2018-12-18T08:32:37.131Z,59.43
2018-12-18T08:35:06.023Z,56.17
2018-12-18T08:37:34.209Z,59.43
2018-12-18T08:40:02.369Z,56.67
2018-12-18T08:42:30.854Z,57.10
2018-12-18T08:44:59.036Z,54.80
2018-12-18T08:47:27.197Z,57.60
2018-12-18T08:49:55.373Z,58.77
2018-12-18T08:52:23.850Z,54.07
2018-12-18T08:54:52.012Z,57.47
2018-12-18T08:57:20.186Z,53.30
2018-12-18T08:59:49.330Z,53.00
2018-12-18T09:02:17.498Z,52.77
2018-12-18T09:04:45.723Z,53.80
2018-12-18T09:07:13.924Z,53.87
2018-12-18T09:09:42.070Z,55.87
2018-12-18T09:12:12.256Z,56.60
2018-12-18T09:14:42.452Z,53.03
2018-12-18T09:17:10.629Z,54.60
2018-12-18T09:19:38.813Z,54.20
2018-12-18T09:22:07.548Z,57.53
2018-12-18T09:24:35.719Z,58.90
2018-12-18T09:27:03.855Z,52.70
2018-12-18T09:29:33.558Z,53.47
2018-12-18T09:32:01.717Z,56.20
2018-12-18T09:34:29.863Z,54.90
2018-12-18T09:36:58.041Z,54.43
2018-12-18T09:42:28.221Z,54.57
2018-12-18T09:44:56.369Z,56.20
2018-12-18T09:47:24.537Z,55.00
2018-12-18T09:49:52.696Z,51.90
2018-12-18T09:52:20.977Z,55.47
2018-12-18T09:54:49.651Z,55.23
2018-12-18T09:57:23.323Z,55.60
2018-12-18T09:59:51.485Z,55.03
2018-12-18T10:02:19.630Z,57.20
2018-12-18T10:04:47.818Z,56.10
2018-12-18T10:07:15.980Z,53.80
2018-12-18T10:09:44.124Z,53.10
2018-12-18T10:12:12.290Z,52.63
2018-12-18T10:14:40.475Z,54.30
2018-12-18T10:17:08.616Z,51.50
2018-12-18T10:19:36.785Z,56.33
2018-12-18T10:22:04.961Z,51.47
2018-12-18T10:24:33.303Z,53.17
2018-12-18T10:27:01.469Z,55.43
2018-12-18T10:29:29.966Z,55.83
2018-12-18T10:31:58.539Z,52.33
2018-12-18T10:34:26.736Z,52.17
2018-12-18T10:36:54.909Z,55.77
2018-12-18T10:39:23.078Z,51.63
2018-12-18T10:41:51.256Z,54.77
2018-12-18T10:44:19.416Z,53.63
2018-12-18T10:46:47.583Z,53.40
2018-12-18T10:49:15.766Z,51.83
2018-12-18T10:51:43.938Z,55.17
2018-12-18T10:54:12.107Z,57.60
2018-12-18T10:56:40.305Z,53.33
2018-12-18T10:59:08.472Z,57.73
2018-12-18T11:01:42.224Z,51.63
2018-12-18T11:04:10.387Z,54.83
2018-12-18T11:06:38.548Z,55.70
2018-12-18T11:09:09.464Z,54.30
2018-12-18T11:11:38.448Z,52.73
2018-12-18T11:14:06.616Z,53.87
2018-12-18T11:16:37.500Z,55.00
2018-12-18T11:19:05.088Z,53.97
2018-12-18T11:21:33.233Z,51.63
2018-12-18T11:24:01.426Z,54.03
2018-12-18T11:26:29.568Z,55.73
2018-12-18T11:28:57.734Z,52.40
2018-12-18T11:31:25.920Z,51.93
2018-12-18T11:33:54.062Z,54.43
2018-12-18T11:36:22.222Z,50.93
2018-12-18T11:38:50.513Z,52.97
2018-12-18T11:41:18.684Z,50.43
2018-12-18T11:43:46.830Z,54.67
2018-12-18T11:46:15.030Z,52.13
2018-12-18T11:48:43.180Z,50.77
2018-12-18T11:51:11.326Z,53.00
2018-12-18T11:53:39.560Z,49.00
2018-12-18T11:56:07.734Z,52.77
2018-12-18T11:58:37.681Z,49.17
2018-12-18T12:01:05.854Z,51.23
2018-12-18T12:03:34.012Z,53.63
2018-12-18T12:06:02.188Z,50.50
2018-12-18T12:08:31.276Z,53.20
2018-12-18T12:10:59.426Z,52.77
2018-12-18T12:13:27.614Z,52.70
2018-12-18T12:15:55.784Z,50.57
2018-12-18T12:18:23.934Z,53.13
2018-12-18T12:20:52.114Z,51.87
2018-12-18T12:23:20.281Z,51.13
2018-12-18T12:25:48.429Z,56.07
2018-12-18T12:28:16.617Z,53.73
2018-12-18T12:30:44.809Z,53.93
2018-12-18T12:33:12.963Z,55.90
2018-12-18T12:35:41.167Z,54.27
2018-12-18T12:38:09.337Z,57.37
2018-12-18T12:40:37.488Z,51.73
2018-12-18T12:43:05.766Z,54.23
2018-12-18T12:45:33.934Z,55.47
2018-12-18T12:48:04.117Z,53.20
2018-12-18T12:50:32.414Z,54.10
2018-12-18T12:53:00.604Z,52.93
2018-12-18T12:55:28.776Z,52.30
2018-12-18T12:57:56.980Z,52.47
2018-12-18T13:00:25.158Z,55.33
2018-12-18T13:02:53.326Z,50.90
2018-12-18T13:05:21.504Z,54.77
2018-12-18T13:07:49.673Z,52.00
2018-12-18T13:10:17.838Z,54.37
2018-12-18T13:12:45.984Z,58.00
2018-12-18T13:15:14.171Z,51.67
2018-12-18T13:17:42.331Z,51.20
2018-12-18T13:20:10.510Z,52.57
2018-12-18T13:22:39.567Z,50.17
2018-12-18T13:25:07.751Z,55.53
2018-12-18T13:27:36.131Z,51.60
2018-12-18T13:30:06.035Z,53.43
2018-12-18T13:32:34.182Z,52.07
2018-12-18T13:35:02.352Z,50.53
2018-12-18T13:37:30.875Z,53.20
2018-12-18T13:39:59.021Z,51.43
2018-12-18T13:42:27.199Z,57.17
2018-12-18T13:44:55.392Z,50.33
2018-12-18T13:47:27.126Z,53.90
2018-12-18T13:49:53.730Z,51.93
2018-12-18T13:52:21.919Z,51.47
2018-12-18T13:54:50.092Z,51.70
2018-12-18T13:57:18.255Z,52.07
2018-12-18T13:59:46.425Z,52.10
2018-12-18T14:02:14.592Z,53.70
2018-12-18T14:04:42.758Z,53.20
2018-12-18T14:07:11.034Z,52.33
2018-12-18T14:09:39.303Z,53.03
2018-12-18T14:12:07.585Z,50.67
2018-12-18T14:14:35.746Z,51.80
2018-12-18T14:17:04.112Z,51.87
2018-12-18T14:19:32.257Z,49.97
2018-12-18T14:22:00.417Z,48.80
2018-12-18T14:24:28.590Z,53.67
2018-12-18T14:26:56.760Z,51.23
2018-12-18T14:29:24.955Z,51.50
2018-12-18T14:31:53.146Z,53.63
2018-12-18T14:34:21.332Z,52.93
2018-12-18T14:36:56.018Z,50.57
2018-12-18T14:39:19.734Z,51.57
2018-12-18T14:41:47.926Z,50.70
2018-12-18T14:44:16.089Z,53.67
2018-12-18T14:46:44.249Z,54.67
2018-12-18T14:49:12.409Z,52.10
2018-12-18T14:51:40.580Z,54.27
2018-12-18T14:54:08.845Z,50.63
2018-12-18T14:56:37.001Z,49.63
2018-12-18T14:59:05.186Z,53.23
2018-12-18T15:01:33.445Z,49.97
2018-12-18T15:04:01.598Z,52.43
2018-12-18T15:06:29.785Z,50.13
2018-12-18T15:08:57.932Z,49.80
2018-12-18T15:11:26.124Z,49.07
2018-12-18T15:13:54.274Z,55.83
2018-12-18T15:16:22.443Z,52.07
2018-12-18T15:18:51.561Z,50.83
2018-12-18T15:21:20.210Z,51.60
2018-12-18T15:23:48.376Z,51.13
2018-12-18T15:28:51.001Z,51.70
2018-12-18T15:31:19.214Z,50.60
2018-12-18T15:33:47.374Z,55.17
2018-12-18T15:36:15.564Z,54.00
2018-12-18T15:38:43.725Z,54.23
2018-12-18T15:41:11.888Z,50.23
2018-12-18T15:43:40.078Z,55.43
2018-12-18T15:46:10.105Z,51.20
2018-12-18T15:48:39.100Z,55.07
2018-12-18T15:51:07.744Z,50.07
2018-12-18T15:53:35.939Z,56.77
2018-12-18T15:56:05.058Z,52.07
2018-12-18T15:58:35.625Z,53.07
2018-12-18T16:01:04.709Z,52.47
2018-12-18T16:03:32.902Z,53.90
2018-12-18T16:06:01.065Z,52.33
2018-12-18T16:08:29.294Z,49.57
2018-12-18T16:10:57.466Z,53.03
2018-12-18T16:13:25.719Z,50.97
2018-12-18T16:15:54.780Z,52.83
2018-12-18T16:18:22.983Z,52.00
2018-12-18T16:20:51.199Z,51.37
2018-12-18T16:23:19.646Z,55.93
2018-12-18T16:25:47.904Z,52.03
2018-12-18T16:28:16.092Z,52.00
2018-12-18T16:30:45.564Z,50.70
2018-12-18T16:33:14.512Z,52.63
2018-12-18T16:35:46.311Z,52.27
2018-12-18T16:38:13.534Z,50.53
2018-12-18T16:40:41.709Z,50.43
2018-12-18T16:43:09.857Z,53.03
2018-12-18T16:45:38.040Z,51.40
2018-12-18T16:48:06.438Z,52.30
2018-12-18T16:50:34.952Z,52.87
2018-12-18T16:53:03.422Z,52.40
2018-12-18T16:55:31.595Z,52.33
2018-12-18T16:57:59.787Z,52.33
2018-12-18T17:00:27.946Z,50.13
2018-12-18T17:02:56.140Z,54.20
2018-12-18T17:05:24.323Z,52.57
2018-12-18T17:07:52.499Z,51.47
2018-12-18T17:10:20.651Z,51.27
2018-12-18T17:12:54.284Z,52.20
2018-12-18T17:15:22.559Z,50.73
2018-12-18T17:17:50.703Z,52.13
2018-12-18T17:20:18.918Z,53.17
2018-12-18T17:22:47.100Z,53.70
2018-12-18T17:25:15.299Z,51.77
2018-12-18T17:27:43.512Z,52.27
2018-12-18T17:30:11.682Z,53.90
2018-12-18T17:32:39.842Z,55.10
2018-12-18T17:35:08.121Z,53.30
2018-12-18T17:37:36.545Z,51.23
2018-12-18T17:40:06.636Z,50.00
2018-12-18T17:42:34.798Z,52.60
2018-12-18T17:45:03.046Z,52.90
2018-12-18T17:47:31.198Z,50.80
2018-12-18T17:49:59.338Z,49.73
2018-12-18T17:52:27.530Z,49.30
2018-12-18T17:54:55.722Z,49.33
2018-12-18T17:57:24.199Z,52.57
2018-12-18T17:59:52.393Z,51.87
2018-12-18T18:02:20.568Z,50.27
2018-12-18T18:04:48.739Z,51.90
2018-12-18T18:07:16.941Z,50.07
2018-12-18T18:09:45.116Z,50.97
2018-12-18T18:12:13.296Z,47.63
2018-12-18T18:14:41.481Z,49.67
2018-12-18T18:17:09.652Z,51.60
2018-12-18T18:19:37.921Z,49.03
2018-12-18T18:22:06.109Z,51.10
2018-12-18T18:24:34.298Z,49.63
2018-12-18T18:27:02.476Z,50.23
2018-12-18T18:29:30.648Z,49.70
2018-12-18T18:31:58.801Z,50.30
2018-12-18T18:34:26.950Z,49.00
2018-12-18T18:36:55.118Z,50.77
2018-12-18T18:39:23.287Z,49.97
2018-12-18T18:41:51.436Z,50.23
2018-12-18T18:44:19.626Z,51.53
2018-12-18T18:46:47.818Z,48.50
2018-12-18T18:49:15.983Z,49.73
2018-12-18T18:51:44.154Z,47.87
2018-12-18T18:54:12.319Z,52.03
2018-12-18T18:56:40.522Z,48.80
2018-12-18T18:59:08.709Z,47.83
2018-12-18T19:01:36.864Z,50.03
2018-12-18T19:04:05.134Z,50.03
2018-12-18T19:06:34.161Z,50.20
2018-12-18T19:09:02.315Z,50.17
2018-12-18T19:11:30.463Z,50.37
2018-12-18T19:13:58.648Z,51.90
2018-12-18T19:16:26.832Z,50.57
2018-12-18T19:18:54.988Z,47.27
2018-12-18T19:21:23.148Z,45.77
2018-12-18T19:23:51.383Z,48.43
2018-12-18T19:26:19.554Z,49.50
2018-12-18T19:28:50.378Z,48.53
2018-12-18T19:31:18.022Z,48.27
2018-12-18T19:33:46.229Z,47.03
2018-12-18T19:36:14.420Z,47.70
2018-12-18T19:38:42.595Z,47.27
2018-12-18T19:41:10.794Z,46.43
2018-12-18T19:43:39.003Z,45.70
2018-12-18T19:46:07.150Z,46.50
2018-12-18T19:48:35.959Z,47.13
2018-12-18T19:51:04.233Z,46.23
2018-12-18T19:53:32.434Z,48.50
2018-12-18T19:56:00.587Z,46.40
2018-12-18T19:58:28.811Z,46.37
2018-12-18T20:00:57.305Z,47.97
2018-12-18T20:03:25.468Z,47.33
2018-12-18T20:05:54.645Z,46.77
2018-12-18T20:08:22.936Z,47.67
2018-12-18T20:10:51.112Z,48.40
2018-12-18T20:13:19.295Z,48.17
2018-12-18T20:15:47.488Z,45.77
2018-12-18T20:18:16.529Z,47.73
2018-12-18T20:20:44.723Z,46.60
2018-12-18T20:23:12.888Z,49.07
2018-12-18T20:25:41.037Z,48.80
2018-12-18T20:28:09.306Z,48.43
2018-12-18T20:30:37.470Z,46.73
2018-12-18T20:33:05.633Z,47.23
2018-12-18T20:35:33.805Z,48.47
2018-12-18T20:38:01.974Z,47.57
2018-12-18T20:40:30.141Z,49.20
2018-12-18T20:42:58.324Z,46.10
2018-12-18T20:45:26.495Z,47.17
2018-12-18T20:47:54.664Z,47.93
2018-12-18T20:50:22.855Z,46.57
2018-12-18T20:52:51.027Z,47.57
2018-12-18T20:55:19.877Z,49.70
2018-12-18T20:57:48.056Z,49.40
2018-12-18T21:00:16.992Z,48.93
2018-12-18T21:02:45.176Z,46.87
2018-12-18T21:05:13.457Z,46.97
2018-12-18T21:07:41.605Z,47.87
2018-12-18T21:10:09.901Z,48.53
2018-12-18T21:12:38.952Z,51.03
2018-12-18T21:15:07.912Z,47.93
2018-12-18T21:17:36.125Z,48.00
2018-12-18T21:20:06.722Z,47.30
2018-12-18T21:22:34.902Z,53.27
2018-12-18T21:25:05.786Z,49.53
2018-12-18T21:27:33.938Z,48.40
2018-12-18T21:30:02.138Z,48.10
2018-12-18T21:32:30.333Z,45.93
2018-12-18T21:34:58.485Z,48.67
2018-12-18T21:37:26.963Z,48.93
2018-12-18T21:39:55.143Z,49.37
2018-12-18T21:42:23.286Z,51.70
2018-12-18T21:44:51.819Z,54.10
2018-12-18T21:47:20.011Z,49.30
2018-12-18T21:49:48.181Z,51.57
2018-12-18T21:52:16.430Z,51.67
2018-12-18T21:54:44.615Z,53.43
2018-12-18T21:57:12.804Z,52.23
2018-12-18T21:59:41.244Z,50.40
2018-12-18T22:02:09.425Z,49.87
2018-12-18T22:04:37.598Z,51.33
2018-12-18T22:07:05.880Z,49.27
2018-12-18T22:09:34.087Z,51.77
2018-12-18T22:12:02.270Z,50.20
2018-12-18T22:14:30.478Z,52.60
2018-12-18T22:16:58.630Z,52.90
2018-12-18T22:19:26.793Z,51.43
2018-12-18T22:21:54.955Z,50.23
2018-12-18T22:24:23.143Z,49.87
2018-12-18T22:26:51.317Z,49.57
2018-12-18T22:29:19.521Z,50.37
2018-12-18T22:31:47.693Z,52.67
2018-12-18T22:34:16.685Z,51.07
2018-12-18T22:36:44.931Z,48.20
2018-12-18T22:39:13.119Z,49.20
2018-12-18T22:41:41.283Z,48.53
2018-12-18T22:44:10.356Z,47.17
2018-12-18T22:46:38.529Z,47.20
2018-12-18T22:49:06.696Z,47.07
2018-12-18T22:51:34.851Z,48.23
2018-12-18T22:54:03.050Z,47.67
2018-12-18T22:56:31.303Z,47.80
2018-12-18T22:58:59.465Z,48.17
2018-12-18T23:01:33.194Z,49.10
2018-12-18T23:04:01.471Z,46.93
2018-12-18T23:06:29.632Z,48.97
2018-12-18T23:08:57.886Z,49.57
2018-12-18T23:11:26.027Z,48.37
2018-12-18T23:13:55.024Z,47.30
2018-12-18T23:16:23.182Z,46.07
2018-12-18T23:18:53.405Z,47.50
2018-12-18T23:21:22.569Z,46.83
2018-12-18T23:23:50.775Z,46.33
2018-12-18T23:26:18.920Z,45.40
2018-12-18T23:28:47.063Z,47.63
2018-12-18T23:31:15.243Z,48.10
2018-12-18T23:33:43.695Z,47.00
2018-12-18T23:36:11.875Z,48.47
2018-12-18T23:38:40.049Z,46.73
2018-12-18T23:41:08.233Z,46.77
2018-12-18T23:43:36.380Z,44.90
2018-12-18T23:46:05.383Z,46.07
2018-12-18T23:48:39.565Z,47.00
2018-12-18T23:51:04.051Z,45.33
2018-12-18T23:53:32.225Z,46.60
2018-12-18T23:56:00.491Z,46.23
2018-12-18T23:58:28.633Z,45.20
